createdAt,value
2019-02-27T00:02:12.369Z,101983.47
2019-02-27T00:04:40.349Z,101983.94
2019-02-27T00:07:08.377Z,101974.27
2019-02-27T00:09:36.479Z,101972.09
2019-02-27T00:12:04.473Z,101977.41
2019-02-27T00:14:33.040Z,101982.30
2019-02-27T00:17:01.127Z,101977.03
2019-02-27T00:19:31.477Z,101970.02
2019-02-27T00:21:58.966Z,101977.95
2019-02-27T00:24:30.034Z,101974.45
2019-02-27T00:26:57.061Z,101976.24
2019-02-27T00:29:28.832Z,101969.66
2019-02-27T00:31:54.881Z,101971.02
2019-02-27T00:34:23.056Z,101970.61
2019-02-27T00:36:51.190Z,101966.20
2019-02-27T00:39:19.230Z,101966.70
2019-02-27T00:41:47.469Z,101962.29
2019-02-27T00:44:15.554Z,101960.56
2019-02-27T00:46:46.101Z,101958.41
2019-02-27T00:49:13.289Z,101949.16
2019-02-27T00:51:44.652Z,101946.58
2019-02-27T00:54:11.106Z,101944.41
2019-02-27T00:56:39.235Z,101943.09
2019-02-27T00:59:07.213Z,101943.55
2019-02-27T01:01:35.301Z,101939.21
2019-02-27T01:04:03.436Z,101935.72
2019-02-27T01:06:31.584Z,101940.59
2019-02-27T01:08:59.771Z,101934.45
2019-02-27T01:11:27.765Z,101936.21
2019-02-27T01:13:55.909Z,101930.11
2019-02-27T01:16:24.097Z,101929.25
2019-02-27T01:18:52.160Z,101922.67
2019-02-27T01:21:20.336Z,101924.02
2019-02-27T01:23:48.347Z,101919.66
2019-02-27T01:26:16.395Z,101918.80
2019-02-27T01:28:45.485Z,101918.39
2019-02-27T01:31:13.579Z,101913.98
2019-02-27T01:33:41.806Z,101917.56
2019-02-27T01:36:09.968Z,101914.98
2019-02-27T01:38:38.542Z,101911.92
2019-02-27T01:41:06.807Z,101913.25
2019-02-27T01:43:39.550Z,101911.48
2019-02-27T01:46:04.532Z,101909.34
2019-02-27T01:48:32.496Z,101905.84
2019-02-27T01:51:00.594Z,101901.94
2019-02-27T01:53:28.575Z,101893.12
2019-02-27T01:55:56.977Z,101890.98
2019-02-27T01:58:25.078Z,101900.67
2019-02-27T02:00:56.113Z,101898.94
2019-02-27T02:03:23.030Z,101893.69
2019-02-27T02:05:51.141Z,101896.33
2019-02-27T02:08:19.110Z,101893.72
2019-02-27T02:10:47.145Z,101885.81
2019-02-27T02:13:40.503Z,101881.89
2019-02-27T02:16:26.765Z,101883.23
2019-02-27T02:19:14.033Z,101873.14
2019-02-27T02:21:56.682Z,101873.60
2019-02-27T02:24:32.632Z,101872.78
2019-02-27T02:27:32.194Z,101865.33
2019-02-27T02:30:17.927Z,101866.67
2019-02-27T02:33:04.184Z,101864.47
2019-02-27T02:35:49.536Z,101861.86
2019-02-27T02:38:23.517Z,101851.33
2019-02-27T02:41:08.465Z,101847.86
2019-02-27T02:43:53.935Z,101843.93
2019-02-27T02:46:44.872Z,101841.32
2019-02-27T02:49:30.060Z,101839.55
2019-02-27T02:52:16.172Z,101834.75
2019-02-27T02:55:03.436Z,101826.41
2019-02-27T02:57:38.206Z,101820.31
2019-02-27T03:00:10.399Z,101817.22
2019-02-27T03:02:41.145Z,101816.84
2019-02-27T03:05:23.348Z,101814.20
2019-02-27T03:08:21.345Z,101808.04
2019-02-27T03:10:53.616Z,101800.59
2019-02-27T03:13:53.041Z,101802.78
2019-02-27T03:16:41.388Z,101797.09
2019-02-27T03:19:22.118Z,101797.56
2019-02-27T03:22:15.578Z,101794.92
2019-02-27T03:24:53.066Z,101789.70
2019-02-27T03:27:34.240Z,101785.33
2019-02-27T03:30:33.943Z,101787.56
2019-02-27T03:33:03.487Z,101785.38
2019-02-27T03:35:59.988Z,101776.61
2019-02-27T03:38:34.501Z,101784.53
2019-02-27T03:41:22.793Z,101783.23
2019-02-27T03:43:59.254Z,101783.27
2019-02-27T03:46:48.155Z,101780.19
2019-02-27T03:49:39.705Z,101773.21
2019-02-27T03:52:28.239Z,101778.05
2019-02-27T03:55:04.681Z,101770.62
2019-02-27T03:57:54.871Z,101777.69
2019-02-27T04:00:44.272Z,101775.95
2019-02-27T04:03:24.676Z,101767.16
2019-02-27T04:06:10.522Z,101764.58
2019-02-27T04:09:00.829Z,101765.92
2019-02-27T04:11:29.370Z,101765.06
2019-02-27T04:14:03.049Z,101771.25
2019-02-27T04:16:29.291Z,101769.05
2019-02-27T04:19:03.074Z,101762.48
2019-02-27T04:21:28.142Z,101760.34
2019-02-27T04:23:56.256Z,101757.26
2019-02-27T04:26:24.341Z,101752.45
2019-02-27T04:28:52.558Z,101751.59
2019-02-27T04:31:20.618Z,101751.63
2019-02-27T04:33:48.674Z,101749.89
2019-02-27T04:36:16.621Z,101752.97
2019-02-27T04:38:44.974Z,101741.56
2019-02-27T04:41:17.776Z,101749.02
2019-02-27T04:43:42.996Z,101746.40
2019-02-27T04:46:11.338Z,101742.88
2019-02-27T04:48:39.349Z,101740.22
2019-02-27T04:51:07.573Z,101742.88
2019-02-27T04:53:35.601Z,101741.13
2019-02-27T04:56:03.697Z,101736.76
2019-02-27T04:58:31.693Z,101735.88
2019-02-27T05:00:59.827Z,101732.83
2019-02-27T05:03:28.493Z,101731.51
2019-02-27T05:05:56.682Z,101731.95
2019-02-27T05:08:26.911Z,101733.27
2019-02-27T05:10:54.418Z,101731.06
2019-02-27T05:13:22.506Z,101727.08
2019-02-27T05:15:50.827Z,101733.67
2019-02-27T05:18:18.772Z,101725.77
2019-02-27T05:20:46.903Z,101730.16
2019-02-27T05:23:15.197Z,101726.20
2019-02-27T05:25:43.251Z,101726.20
2019-02-27T05:28:11.364Z,101730.14
2019-02-27T05:30:39.635Z,101723.07
2019-02-27T05:33:07.957Z,101718.27
2019-02-27T05:35:36.010Z,101722.64
2019-02-27T05:38:05.195Z,101719.53
2019-02-27T05:40:33.434Z,101725.25
2019-02-27T05:43:01.816Z,101719.56
2019-02-27T05:45:31.419Z,101716.06
2019-02-27T05:47:59.482Z,101715.13
2019-02-27T05:50:27.830Z,101716.04
2019-02-27T05:52:55.889Z,101716.48
2019-02-27T05:55:23.938Z,101711.64
2019-02-27T05:57:51.974Z,101714.70
2019-02-27T06:03:01.033Z,101710.30
2019-02-27T06:05:30.847Z,101712.49
2019-02-27T06:08:02.037Z,101712.03
2019-02-27T06:10:29.749Z,101714.17
2019-02-27T06:12:58.467Z,101711.48
2019-02-27T06:15:28.580Z,101709.14
2019-02-27T06:17:56.112Z,101710.34
2019-02-27T06:20:24.162Z,101711.05
2019-02-27T06:22:52.121Z,101704.24
2019-02-27T06:25:23.322Z,101711.10
2019-02-27T06:27:49.905Z,101706.05
2019-02-27T06:30:18.243Z,101706.27
2019-02-27T06:32:46.178Z,101699.02
2019-02-27T06:35:14.177Z,101697.13
2019-02-27T06:37:42.287Z,101704.86
2019-02-27T06:40:11.197Z,101691.84
2019-02-27T06:42:39.623Z,101702.72
2019-02-27T06:45:10.239Z,101693.81
2019-02-27T06:47:38.337Z,101697.19
2019-02-27T06:50:07.301Z,101703.21
2019-02-27T06:52:35.567Z,101699.58
2019-02-27T06:55:03.698Z,101700.39
2019-02-27T06:57:32.074Z,101694.22
2019-02-27T07:00:02.941Z,101698.11
2019-02-27T07:02:30.050Z,101694.14
2019-02-27T07:04:58.066Z,101701.13
2019-02-27T07:07:28.738Z,101701.49
2019-02-27T07:09:56.289Z,101702.70
2019-02-27T07:12:24.357Z,101701.78
2019-02-27T07:14:52.390Z,101696.38
2019-02-27T07:17:20.433Z,101692.30
2019-02-27T07:19:49.730Z,101696.63
2019-02-27T07:22:18.346Z,101693.48
2019-02-27T07:24:46.356Z,101698.28
2019-02-27T07:27:14.393Z,101693.88
2019-02-27T07:29:43.010Z,101692.91
2019-02-27T07:32:11.203Z,101693.33
2019-02-27T07:34:39.278Z,101687.11
2019-02-27T07:37:07.616Z,101689.23
2019-02-27T07:39:35.935Z,101685.19
2019-02-27T07:42:04.149Z,101685.55
2019-02-27T07:44:34.886Z,101680.98
2019-02-27T07:47:01.894Z,101682.18
2019-02-27T07:49:30.941Z,101681.66
2019-02-27T07:51:59.591Z,101678.05
2019-02-27T07:54:29.134Z,101678.01
2019-02-27T07:56:57.349Z,101673.11
2019-02-27T07:59:25.525Z,101668.63
2019-02-27T08:01:53.564Z,101674.80
2019-02-27T08:04:22.994Z,101669.02
2019-02-27T08:06:51.305Z,101674.14
2019-02-27T08:09:19.687Z,101662.46
2019-02-27T08:11:48.030Z,101671.92
2019-02-27T08:14:16.130Z,101676.59
2019-02-27T08:16:44.543Z,101677.75
2019-02-27T08:19:12.788Z,101670.50
2019-02-27T08:21:41.106Z,101663.63
2019-02-27T08:24:09.714Z,101661.14
2019-02-27T08:26:38.029Z,101664.52
2019-02-27T08:29:06.103Z,101664.45
2019-02-27T08:31:34.219Z,101665.03
2019-02-27T08:34:02.661Z,101661.69
2019-02-27T08:36:30.802Z,101654.43
2019-02-27T08:38:58.851Z,101647.45
2019-02-27T08:41:29.195Z,101649.60
2019-02-27T08:43:56.557Z,101648.62
2019-02-27T08:46:24.865Z,101642.38
2019-02-27T08:48:52.947Z,101640.17
2019-02-27T08:51:21.270Z,101633.94
2019-02-27T08:53:49.719Z,101632.94
2019-02-27T08:56:17.838Z,101631.08
2019-02-27T08:58:45.927Z,101626.10
2019-02-27T09:01:13.979Z,101621.53
2019-02-27T09:03:42.141Z,101614.80
2019-02-27T09:06:10.390Z,101618.22
2019-02-27T09:08:43.311Z,101609.77
2019-02-27T09:11:08.377Z,101606.90
2019-02-27T09:13:36.642Z,101603.15
2019-02-27T09:16:04.966Z,101596.86
2019-02-27T09:18:33.382Z,101592.31
2019-02-27T09:21:02.928Z,101587.35
2019-02-27T09:23:31.065Z,101580.05
2019-02-27T09:26:02.521Z,101581.03
2019-02-27T09:28:29.049Z,101578.88
2019-02-27T09:30:57.325Z,101576.68
2019-02-27T09:33:25.416Z,101578.38
2019-02-27T09:35:53.560Z,101580.44
2019-02-27T09:38:24.090Z,101571.63
2019-02-27T09:40:51.568Z,101575.28
2019-02-27T09:43:19.985Z,101565.11
2019-02-27T09:45:48.062Z,101566.89
2019-02-27T09:48:16.074Z,101566.44
2019-02-27T09:50:47.749Z,101565.05
2019-02-27T09:53:14.811Z,101556.09
2019-02-27T09:55:43.128Z,101554.15
2019-02-27T09:58:11.672Z,101555.67
2019-02-27T10:00:40.939Z,101553.90
2019-02-27T10:03:08.953Z,101548.47
2019-02-27T10:05:37.557Z,101539.51
2019-02-27T10:08:07.503Z,101546.37
2019-02-27T10:10:35.634Z,101539.09
2019-02-27T10:13:04.124Z,101543.30
2019-02-27T10:15:34.332Z,101535.64
2019-02-27T10:18:02.294Z,101544.75
2019-02-27T10:20:30.898Z,101533.46
2019-02-27T10:22:59.254Z,101534.84
2019-02-27T10:25:27.245Z,101525.10
2019-02-27T10:27:55.328Z,101523.71
2019-02-27T10:30:23.616Z,101524.47
2019-02-27T10:32:51.815Z,101515.23
2019-02-27T10:35:20.173Z,101513.41
2019-02-27T10:37:50.745Z,101513.35
2019-02-27T10:40:22.299Z,101508.34
2019-02-27T10:42:51.354Z,101499.94
2019-02-27T10:45:19.591Z,101500.90
2019-02-27T10:47:47.782Z,101495.94
2019-02-27T10:50:16.240Z,101494.53
2019-02-27T10:52:44.409Z,101485.55
2019-02-27T10:55:14.179Z,101481.11
2019-02-27T10:57:42.793Z,101483.35
2019-02-27T11:00:24.828Z,101481.77
2019-02-27T11:02:52.513Z,101476.08
2019-02-27T11:05:20.959Z,101467.83
2019-02-27T11:07:50.177Z,101465.62
2019-02-27T11:10:18.766Z,101472.36
2019-02-27T11:12:46.929Z,101461.81
2019-02-27T11:15:15.916Z,101452.92
2019-02-27T11:17:44.058Z,101447.50
2019-02-27T11:20:12.528Z,101444.39
2019-02-27T11:22:40.548Z,101441.34
2019-02-27T11:25:10.006Z,101439.67
2019-02-27T11:27:38.949Z,101430.77
2019-02-27T11:30:09.685Z,101423.59
2019-02-27T11:32:37.884Z,101420.27
2019-02-27T11:35:06.122Z,101415.57
2019-02-27T11:37:34.151Z,101413.12
2019-02-27T11:40:02.223Z,101411.92
2019-02-27T11:42:32.037Z,101408.77
2019-02-27T11:45:00.549Z,101396.88
2019-02-27T11:47:28.731Z,101398.27
2019-02-27T11:49:56.742Z,101398.41
2019-02-27T11:52:27.805Z,101389.09
2019-02-27T11:54:54.715Z,101382.45
2019-02-27T11:57:23.740Z,101380.14
2019-02-27T11:59:51.864Z,101367.50
2019-02-27T12:02:28.606Z,101368.63
2019-02-27T12:04:53.496Z,101362.36
2019-02-27T12:07:19.911Z,101354.45
2019-02-27T12:09:48.247Z,101351.90
2019-02-27T12:12:16.291Z,101354.38
2019-02-27T12:14:44.590Z,101347.86
2019-02-27T12:17:12.858Z,101341.63
2019-02-27T12:19:44.398Z,101344.48
2019-02-27T12:22:10.998Z,101334.62
2019-02-27T12:24:39.550Z,101333.06
2019-02-27T12:27:10.387Z,101334.47
2019-02-27T12:29:37.901Z,101323.89
2019-02-27T12:32:06.246Z,101318.75
2019-02-27T12:34:37.042Z,101317.73
2019-02-27T12:37:03.970Z,101307.98
2019-02-27T12:39:31.983Z,101294.83
2019-02-27T12:42:00.066Z,101298.05
2019-02-27T12:44:28.134Z,101290.59
2019-02-27T12:46:56.460Z,101284.89
2019-02-27T12:49:25.062Z,101280.25
2019-02-27T12:51:53.119Z,101274.69
2019-02-27T12:54:21.118Z,101272.25
2019-02-27T12:56:49.129Z,101263.02
2019-02-27T12:59:17.402Z,101259.17
2019-02-27T13:01:45.654Z,101254.30
2019-02-27T13:04:16.547Z,101246.77
2019-02-27T13:06:43.852Z,101242.70
2019-02-27T13:09:12.123Z,101247.65
2019-02-27T13:11:41.953Z,101241.52
2019-02-27T13:14:10.068Z,101243.95
2019-02-27T13:16:38.140Z,101235.09
2019-02-27T13:19:07.063Z,101242.09
2019-02-27T13:21:35.483Z,101238.94
2019-02-27T13:24:03.722Z,101235.74
2019-02-27T13:26:34.635Z,101229.23
2019-02-27T13:29:02.253Z,101223.77
2019-02-27T13:31:30.302Z,101215.39
2019-02-27T13:33:58.306Z,101209.66
2019-02-27T13:36:26.376Z,101208.02
2019-02-27T13:38:54.629Z,101195.58
2019-02-27T13:41:23.827Z,101193.45
2019-02-27T13:43:52.360Z,101186.88
2019-02-27T13:49:08.081Z,101164.09
2019-02-27T13:51:37.205Z,101158.69
2019-02-27T13:54:06.275Z,101157.73
2019-02-27T13:56:34.350Z,101154.16
2019-02-27T13:59:02.441Z,101144.53
2019-02-27T14:01:30.426Z,101138.47
2019-02-27T14:03:58.530Z,101140.59
2019-02-27T14:06:26.522Z,101133.94
2019-02-27T14:08:54.839Z,101131.58
2019-02-27T14:11:24.875Z,101121.64
2019-02-27T14:13:52.461Z,101118.52
2019-02-27T14:16:20.515Z,101116.08
2019-02-27T14:18:50.097Z,101119.11
2019-02-27T14:21:18.402Z,101116.70
2019-02-27T14:23:47.106Z,101110.88
2019-02-27T14:26:16.214Z,101111.76
2019-02-27T14:28:44.327Z,101104.48
2019-02-27T14:31:13.205Z,101110.43
2019-02-27T14:33:41.336Z,101097.11
2019-02-27T14:36:09.510Z,101101.36
2019-02-27T14:38:37.594Z,101100.16
2019-02-27T14:41:05.578Z,101098.73
2019-02-27T14:43:33.669Z,101096.45
2019-02-27T14:46:01.646Z,101088.13
2019-02-27T14:48:30.420Z,101089.30
2019-02-27T14:50:58.657Z,101088.97
2019-02-27T14:53:26.945Z,101079.96
2019-02-27T14:55:55.357Z,101077.51
2019-02-27T14:58:24.369Z,101076.38
2019-02-27T15:00:53.087Z,101074.42
2019-02-27T15:03:21.110Z,101077.45
2019-02-27T15:05:49.085Z,101075.03
2019-02-27T15:08:17.254Z,101069.99
2019-02-27T15:10:45.242Z,101058.12
2019-02-27T15:13:13.478Z,101058.91
2019-02-27T15:15:43.705Z,101057.77
2019-02-27T15:18:11.752Z,101047.89
2019-02-27T15:20:41.003Z,101037.89
2019-02-27T15:23:09.273Z,101044.70
2019-02-27T15:25:41.921Z,101043.77
2019-02-27T15:28:07.360Z,101039.77
2019-02-27T15:30:35.638Z,101030.86
2019-02-27T15:33:05.062Z,101032.66
2019-02-27T15:35:33.808Z,101031.95
2019-02-27T15:38:01.874Z,101022.06
2019-02-27T15:40:30.588Z,101022.38
2019-02-27T15:42:58.692Z,101020.77
2019-02-27T15:45:26.910Z,101017.73
2019-02-27T15:47:54.962Z,101018.03
2019-02-27T15:50:23.643Z,101011.73
2019-02-27T15:52:51.942Z,101010.98
2019-02-27T15:55:20.023Z,101010.11
2019-02-27T15:57:52.046Z,101012.99
2019-02-27T16:00:18.882Z,100993.84
2019-02-27T16:02:46.999Z,100994.70
2019-02-27T16:05:15.069Z,100994.88
2019-02-27T16:07:48.472Z,100995.25
2019-02-27T16:10:14.069Z,100982.39
2019-02-27T16:12:42.166Z,100984.20
2019-02-27T16:15:10.545Z,100980.94
2019-02-27T16:17:38.728Z,100979.13
2019-02-27T16:20:08.216Z,100973.20
2019-02-27T16:22:36.205Z,100969.64
2019-02-27T16:25:04.587Z,100966.38
2019-02-27T16:27:35.383Z,100966.94
2019-02-27T16:30:03.854Z,100959.98
2019-02-27T16:32:32.060Z,100952.44
2019-02-27T16:35:00.417Z,100948.43
2019-02-27T16:37:28.626Z,100942.96
2019-02-27T16:39:56.943Z,100939.20
2019-02-27T16:42:25.162Z,100941.39
2019-02-27T16:44:54.453Z,100933.53
2019-02-27T16:47:23.729Z,100933.98
2019-02-27T16:49:54.160Z,100932.72
2019-02-27T16:52:22.341Z,100935.83
2019-02-27T16:54:50.761Z,100942.84
2019-02-27T16:57:24.162Z,100938.28
2019-02-27T16:59:49.087Z,100934.22
2019-02-27T17:02:17.638Z,100927.91
2019-02-27T17:04:45.826Z,100923.42
2019-02-27T17:07:13.902Z,100922.81
2019-02-27T17:09:43.868Z,100917.75
2019-02-27T17:12:11.843Z,100923.33
2019-02-27T17:14:39.939Z,100916.52
2019-02-27T17:17:08.166Z,100915.36
2019-02-27T17:19:36.529Z,100913.41
2019-02-27T17:22:05.755Z,100912.80
2019-02-27T17:24:33.974Z,100906.89
2019-02-27T17:27:02.359Z,100910.27
2019-02-27T17:29:31.128Z,100906.07
2019-02-27T17:31:59.322Z,100908.48
2019-02-27T17:34:27.467Z,100907.33
2019-02-27T17:36:55.538Z,100902.26
2019-02-27T17:39:27.668Z,100906.83
2019-02-27T17:41:53.397Z,100903.45
2019-02-27T17:44:21.534Z,100894.77
2019-02-27T17:46:54.386Z,100895.43
2019-02-27T17:49:22.257Z,100887.20
2019-02-27T17:51:49.647Z,100888.70
2019-02-27T17:54:18.038Z,100881.45
2019-02-27T17:56:47.150Z,100882.00
2019-02-27T17:59:16.165Z,100877.80
2019-02-27T18:01:44.274Z,100871.69
2019-02-27T18:04:14.559Z,100869.98
2019-02-27T18:06:42.374Z,100868.81
2019-02-27T18:09:10.386Z,100868.11
2019-02-27T18:11:38.606Z,100861.54
2019-02-27T18:14:09.875Z,100861.70
2019-02-27T18:16:36.633Z,100854.34
2019-02-27T18:19:04.790Z,100854.52
2019-02-27T18:21:33.842Z,100845.78
2019-02-27T18:24:03.594Z,100835.77
2019-02-27T18:26:31.734Z,100831.48
2019-02-27T18:28:59.721Z,100827.61
2019-02-27T18:31:27.902Z,100828.16
2019-02-27T18:33:56.096Z,100827.45
2019-02-27T18:36:24.319Z,100821.84
2019-02-27T18:38:52.771Z,100817.63
2019-02-27T18:41:20.856Z,100815.97
2019-02-27T18:43:49.026Z,100810.28
2019-02-27T18:46:17.338Z,100808.66
2019-02-27T18:48:45.396Z,100803.41
2019-02-27T18:51:13.655Z,100809.27
2019-02-27T18:53:47.395Z,100804.03
2019-02-27T18:56:11.935Z,100801.91
2019-02-27T18:58:39.947Z,100801.24
2019-02-27T19:01:09.982Z,100797.34
2019-02-27T19:03:38.026Z,100791.77
2019-02-27T19:06:06.215Z,100786.53
2019-02-27T19:08:34.591Z,100778.27
2019-02-27T19:11:03.782Z,100778.34
2019-02-27T19:13:32.439Z,100776.30
2019-02-27T19:16:00.739Z,100774.14
2019-02-27T19:18:28.733Z,100773.80
2019-02-27T19:20:59.240Z,100765.91
2019-02-27T19:23:26.379Z,100762.17
2019-02-27T19:25:54.512Z,100755.23
2019-02-27T19:28:24.947Z,100754.44
2019-02-27T19:30:52.438Z,100751.78
2019-02-27T19:33:20.964Z,100751.56
2019-02-27T19:35:49.034Z,100750.39
2019-02-27T19:38:17.061Z,100750.93
2019-02-27T19:40:45.053Z,100750.55
2019-02-27T19:43:13.408Z,100746.64
2019-02-27T19:45:42.318Z,100743.69
2019-02-27T19:48:10.854Z,100738.05
2019-02-27T19:50:45.201Z,100736.80
2019-02-27T19:53:09.213Z,100737.83
2019-02-27T19:55:37.261Z,100733.54
2019-02-27T19:58:05.537Z,100727.05
2019-02-27T20:00:35.416Z,100726.64
2019-02-27T20:03:04.183Z,100725.48
2019-02-27T20:05:32.306Z,100719.33
2019-02-27T20:08:02.384Z,100716.91
2019-02-27T20:10:33.006Z,100724.00
2019-02-27T20:13:00.130Z,100717.52
2019-02-27T20:15:28.443Z,100720.25
2019-02-27T20:17:56.774Z,100722.12
2019-02-27T20:20:25.069Z,100716.05
2019-02-27T20:22:54.712Z,100716.58
2019-02-27T20:25:23.474Z,100714.92
2019-02-27T20:27:51.767Z,100707.03
2019-02-27T20:30:20.279Z,100707.57
2019-02-27T20:32:48.363Z,100705.86
2019-02-27T20:35:17.317Z,100698.05
2019-02-27T20:37:46.407Z,100694.16
2019-02-27T20:40:14.914Z,100687.14
2019-02-27T20:42:43.779Z,100682.44
2019-02-27T20:45:13.630Z,100678.99
2019-02-27T20:47:43.341Z,100678.61
2019-02-27T20:50:20.930Z,100671.67
2019-02-27T20:52:46.450Z,100665.58
2019-02-27T20:55:15.547Z,100669.25
2019-02-27T20:57:43.803Z,100666.67
2019-02-27T21:00:12.946Z,100657.05
2019-02-27T21:02:40.918Z,100661.11
2019-02-27T21:05:10.229Z,100655.88
2019-02-27T21:07:38.459Z,100653.30
2019-02-27T21:10:08.277Z,100645.42
2019-02-27T21:12:37.311Z,100645.12
2019-02-27T21:15:06.821Z,100643.41
2019-02-27T21:17:34.969Z,100635.98
2019-02-27T21:20:03.486Z,100626.78
2019-02-27T21:22:31.597Z,100632.16
2019-02-27T21:24:59.880Z,100627.88
2019-02-27T21:27:28.521Z,100622.73
2019-02-27T21:29:57.879Z,100613.98
2019-02-27T21:32:26.039Z,100615.84
2019-02-27T21:34:55.262Z,100613.67
2019-02-27T21:37:24.289Z,100602.81
2019-02-27T21:39:52.572Z,100603.30
2019-02-27T21:42:20.703Z,100596.25
2019-02-27T21:44:48.721Z,100594.55
2019-02-27T21:47:18.388Z,100599.93
2019-02-27T21:49:46.734Z,100591.18
2019-02-27T21:52:14.718Z,100590.80
2019-02-27T21:54:42.787Z,100586.44
2019-02-27T21:57:10.846Z,100591.83
2019-02-27T21:59:39.862Z,100582.70
2019-02-27T22:02:08.818Z,100591.56
2019-02-27T22:04:36.987Z,100591.56
2019-02-27T22:07:05.130Z,100581.11
2019-02-27T22:09:33.299Z,100585.95
2019-02-27T22:12:02.098Z,100582.44
2019-02-27T22:14:30.773Z,100577.85
2019-02-27T22:17:01.601Z,100576.53
2019-02-27T22:19:28.949Z,100577.44
2019-02-27T22:21:57.248Z,100578.45
2019-02-27T22:24:25.606Z,100582.52
2019-02-27T22:26:53.817Z,100570.66
2019-02-27T22:29:21.927Z,100577.28
2019-02-27T22:31:50.532Z,100568.61
2019-02-27T22:34:18.881Z,100570.36
2019-02-27T22:36:46.923Z,100570.36
2019-02-27T22:39:15.126Z,100562.94
2019-02-27T22:41:43.225Z,100563.08
2019-02-27T22:44:11.441Z,100566.67
2019-02-27T22:46:39.727Z,100560.05
2019-02-27T22:49:10.619Z,100558.87
2019-02-27T22:51:38.955Z,100560.58
2019-02-27T22:54:07.014Z,100553.50
2019-02-27T22:56:35.096Z,100550.92
2019-02-27T22:59:03.858Z,100552.63
2019-02-27T23:01:43.525Z,100551.84
2019-02-27T23:04:11.648Z,100543.66
2019-02-27T23:06:39.991Z,100540.62
2019-02-27T23:09:09.843Z,100543.35
2019-02-27T23:11:39.619Z,100546.00
2019-02-27T23:14:08.434Z,100538.13
2019-02-27T23:16:36.846Z,100534.23
2019-02-27T23:19:05.078Z,100531.09
2019-02-27T23:21:33.174Z,100520.19
2019-02-27T23:24:01.214Z,100519.31
2019-02-27T23:26:29.286Z,100520.72
2019-02-27T23:28:57.456Z,100513.33
2019-02-27T23:31:25.746Z,100511.17
2019-02-27T23:33:54.187Z,100513.91
2019-02-27T23:36:22.857Z,100509.55
2019-02-27T23:38:51.166Z,100508.22
2019-02-27T23:41:22.897Z,100508.83
2019-02-27T23:43:49.078Z,100496.67
2019-02-27T23:46:18.479Z,100494.86
2019-02-27T23:48:46.915Z,100493.23
2019-02-27T23:51:16.758Z,100492.13
2019-02-27T23:53:45.232Z,100491.91
2019-02-27T23:56:19.303Z,100494.55
2019-02-27T23:58:43.130Z,100492.43
